DABC/CZL METAR and TAF weather

Enter ICAO airport designator
Station Type Date Time Source
DABC METAR 2019/08/24 09:00 UTC NOAA

DABC 240900Z VRB02KT 8000 FEW023 27/20 Q1020


Station Type Date Time Source
DABC Decoded METAR 2019/08/24 09:00 UTC NOAA

Station name not available
Aug 24, 2019 - 05:00 AM EDT / 2019.08.24 0900 UTC
Wind: Variable at 2 MPH (2 KT):0
Visibility: 4 mile(s):0
Sky conditions: mostly clear
Temperature: 80 F (27 C)
Dew Point: 68 F (20 C)
Relative Humidity: 65%
Pressure (altimeter): 30.12 in. Hg (1020 hPa)
ob: DABC 240900Z VRB02KT 8000 FEW023 27/20 Q1020
cycle: 9

Station Type Date Time Source
DABC TAF 2019/08/24 06:38 UTC NOAA

TAF COR DABC 240500Z 2406/2506 16008KT 8000 FEW013 SCT030
BECMG 2408/2410 01010KT FEW026TCU PROB40
TEMPO 2410/2422 5000 -TSRA FEW020CB BKN030 PROB30
TEMPO 2422/2506 5000 RA FEW023CB

Example: see airport list